createdAt,value
2022-08-04T00:00:06.661Z,938.22
2022-08-04T00:01:06.921Z,938.2
2022-08-04T00:02:07.228Z,938.18
2022-08-04T00:03:07.451Z,938.21
2022-08-04T00:04:07.957Z,938.18
2022-08-04T00:05:08.155Z,938.19
2022-08-04T00:06:09.057Z,938.2
2022-08-04T00:07:09.657Z,938.17
2022-08-04T00:08:10.277Z,938.21
2022-08-04T00:09:10.577Z,938.16
2022-08-04T00:10:10.611Z,938.15
2022-08-04T00:11:11.462Z,938.15
2022-08-04T00:12:11.757Z,938.16
2022-08-04T00:13:12.061Z,938.14
2022-08-04T00:14:12.274Z,938.16
2022-08-04T00:15:14.806Z,938.14
2022-08-04T00:16:13.443Z,938.11
2022-08-04T00:17:14.230Z,938.08
2022-08-04T00:18:14.889Z,938.11
2022-08-04T00:19:15.386Z,938.09
2022-08-04T00:20:16.141Z,938.06
2022-08-04T00:21:16.342Z,938.05
2022-08-04T00:22:16.967Z,938.08
2022-08-04T00:23:17.162Z,938.05
2022-08-04T00:24:16.345Z,938.07
2022-08-04T00:25:16.863Z,938.03
2022-08-04T00:26:17.454Z,938.04
2022-08-04T00:27:18.152Z,938.06
2022-08-04T00:28:19.116Z,938.05
2022-08-04T00:29:19.316Z,938.02
2022-08-04T00:30:20.327Z,937.99
2022-08-04T00:31:20.527Z,938
2022-08-04T00:32:34.283Z,938.01
2022-08-04T00:33:22.356Z,938.01
2022-08-04T00:34:23.203Z,938.01
2022-08-04T00:35:24.207Z,938.01
2022-08-04T00:36:25.132Z,938
2022-08-04T00:37:25.327Z,937.99
2022-08-04T00:38:25.528Z,937.99
2022-08-04T00:39:26.113Z,937.98
2022-08-04T00:40:27.158Z,937.97
2022-08-04T00:41:27.520Z,937.97
2022-08-04T00:42:28.375Z,938
2022-08-04T00:43:29.261Z,937.98
2022-08-04T00:44:29.459Z,938.01
2022-08-04T00:45:30.384Z,938
2022-08-04T00:46:29.493Z,938
2022-08-04T00:47:30.111Z,937.96
2022-08-04T00:48:31.016Z,937.98
2022-08-04T00:49:31.942Z,937.97
2022-08-04T00:50:32.662Z,937.96
2022-08-04T00:51:33.612Z,937.97
2022-08-04T00:52:34.123Z,937.98
2022-08-04T00:53:34.918Z,938
2022-08-04T00:54:35.130Z,938
2022-08-04T00:55:36.049Z,938
2022-08-04T00:56:37.110Z,938.03
2022-08-04T00:57:37.743Z,938.09
2022-08-04T00:58:38.059Z,938.06
2022-08-04T00:59:38.282Z,938.03
2022-08-04T01:00:38.456Z,938.05
2022-08-04T01:01:39.007Z,938.06
2022-08-04T01:02:40.029Z,938.02
2022-08-04T01:03:40.947Z,938.04
2022-08-04T01:04:41.146Z,938.02
2022-08-04T01:05:42.133Z,938.01
2022-08-04T01:06:42.399Z,938.02
2022-08-04T01:07:43.012Z,938.02
2022-08-04T01:08:43.232Z,938
2022-08-04T01:09:43.539Z,938.02
2022-08-04T01:10:43.827Z,938.02
2022-08-04T01:11:56.390Z,937.97
2022-08-04T01:12:44.598Z,938.01
2022-08-04T01:13:44.804Z,937.99
2022-08-04T01:14:45.025Z,938.01
2022-08-04T01:15:56.560Z,938.01
2022-08-04T01:16:45.826Z,938.03
2022-08-04T01:17:46.754Z,938.02
2022-08-04T01:18:47.681Z,938.01
2022-08-04T01:19:47.900Z,937.97
2022-08-04T01:20:48.016Z,938.01
2022-08-04T01:21:48.659Z,938
2022-08-04T01:22:49.579Z,938.01
2022-08-04T01:23:50.202Z,937.99
2022-08-04T01:24:50.837Z,938.02
2022-08-04T01:25:51.391Z,938.01
2022-08-04T01:26:53.973Z,937.98
2022-08-04T01:27:52.541Z,938.03
2022-08-04T01:28:53.036Z,937.99
2022-08-04T01:29:54.975Z,938
2022-08-04T01:30:54.467Z,938.01
2022-08-04T01:31:54.731Z,937.98
2022-08-04T01:32:55.622Z,937.99
2022-08-04T01:33:58.305Z,938
2022-08-04T01:34:56.858Z,937.95
2022-08-04T01:35:57.408Z,938.01
2022-08-04T01:36:57.594Z,937.99
2022-08-04T01:37:57.789Z,937.99
2022-08-04T01:38:58.140Z,937.95
2022-08-04T01:39:58.803Z,937.97
2022-08-04T01:40:59.539Z,937.96
2022-08-04T01:42:00.496Z,937.94
2022-08-04T01:43:01.359Z,937.95
2022-08-04T01:44:01.855Z,937.91
2022-08-04T01:45:02.769Z,937.9
2022-08-04T01:46:02.971Z,937.91
2022-08-04T01:47:03.187Z,937.87
2022-08-04T01:48:04.030Z,937.92
2022-08-04T01:49:04.647Z,937.9
2022-08-04T01:50:05.043Z,937.89
2022-08-04T01:51:05.195Z,937.89
2022-08-04T01:52:05.820Z,937.91
2022-08-04T01:53:06.021Z,937.94
2022-08-04T01:54:06.238Z,937.9
2022-08-04T01:55:06.637Z,937.87
2022-08-04T01:56:07.142Z,937.93
2022-08-04T01:57:37.465Z,937.89
2022-08-04T01:58:08.450Z,937.89
2022-08-04T01:59:09.392Z,937.88
2022-08-04T02:00:09.619Z,937.9
2022-08-04T02:01:10.604Z,937.86
2022-08-04T02:02:11.212Z,937.88
2022-08-04T02:03:11.994Z,937.85
2022-08-04T02:04:26.303Z,937.85
2022-08-04T02:05:26.801Z,937.87
2022-08-04T02:06:27.114Z,937.86
2022-08-04T02:07:28.010Z,937.85
2022-08-04T02:08:28.371Z,937.83
2022-08-04T02:09:28.871Z,937.82
2022-08-04T02:10:29.994Z,937.84
2022-08-04T02:11:30.434Z,937.84
2022-08-04T02:12:30.929Z,937.81
2022-08-04T02:13:31.131Z,937.81
2022-08-04T02:14:31.627Z,937.81
2022-08-04T02:15:32.267Z,937.79
2022-08-04T02:16:33.238Z,937.81
2022-08-04T02:17:33.472Z,937.81
2022-08-04T02:18:33.964Z,937.79
2022-08-04T02:19:34.166Z,937.8
2022-08-04T02:20:34.361Z,937.83
2022-08-04T02:21:41.918Z,937.81
2022-08-04T02:22:36.095Z,937.82
2022-08-04T02:23:36.661Z,937.83
2022-08-04T02:24:37.581Z,937.82
2022-08-04T02:25:38.502Z,937.79
2022-08-04T02:26:39.419Z,937.8
2022-08-04T02:27:59.511Z,937.8
2022-08-04T02:28:40.290Z,937.76
2022-08-04T02:29:40.627Z,937.75
2022-08-04T02:30:41.120Z,937.74
2022-08-04T02:31:42.150Z,937.75
2022-08-04T02:32:43.066Z,937.73
2022-08-04T02:33:43.998Z,937.78
2022-08-04T02:34:44.947Z,937.73
2022-08-04T02:35:45.627Z,937.78
2022-08-04T02:36:46.584Z,937.74
2022-08-04T02:37:46.784Z,937.76
2022-08-04T02:38:47.014Z,937.76
2022-08-04T02:39:48.644Z,937.77
2022-08-04T02:40:47.978Z,937.75
2022-08-04T02:41:48.327Z,937.73
2022-08-04T02:42:49.264Z,937.78
2022-08-04T02:43:52.677Z,937.75
2022-08-04T02:44:51.033Z,937.72
2022-08-04T02:45:51.709Z,937.72
2022-08-04T02:46:52.633Z,937.75
2022-08-04T02:48:08.451Z,937.73
2022-08-04T02:48:54.098Z,937.73
2022-08-04T02:49:54.297Z,937.75
2022-08-04T02:50:54.802Z,937.72
2022-08-04T02:51:55.498Z,937.73
2022-08-04T02:52:55.995Z,937.72
2022-08-04T02:53:57.026Z,937.69
2022-08-04T02:54:57.243Z,937.72
2022-08-04T02:55:57.461Z,937.73
2022-08-04T02:56:57.957Z,937.69
2022-08-04T02:57:58.225Z,937.69
2022-08-04T02:58:59.316Z,937.71
2022-08-04T03:00:00.248Z,937.72
2022-08-04T03:01:00.505Z,937.71
2022-08-04T03:02:00.833Z,937.68
2022-08-04T03:03:01.754Z,937.66
2022-08-04T03:04:02.656Z,937.69
2022-08-04T03:05:03.658Z,937.71
2022-08-04T03:06:06.429Z,937.72
2022-08-04T03:07:04.309Z,937.7
2022-08-04T03:08:04.841Z,937.69
2022-08-04T03:09:05.644Z,937.7
2022-08-04T03:10:06.567Z,937.7
2022-08-04T03:11:07.620Z,937.72
2022-08-04T03:12:08.621Z,937.7
2022-08-04T03:13:09.524Z,937.68
2022-08-04T03:14:10.521Z,937.69
2022-08-04T03:15:10.499Z,937.69
2022-08-04T03:16:10.836Z,937.68
2022-08-04T03:17:11.468Z,937.7
2022-08-04T03:18:12.499Z,937.66
2022-08-04T03:19:12.695Z,937.67
2022-08-04T03:20:13.654Z,937.68
2022-08-04T03:21:14.576Z,937.71
2022-08-04T03:22:15.615Z,937.73
2022-08-04T03:23:16.237Z,937.74
2022-08-04T03:24:19.940Z,937.75
2022-08-04T03:25:16.824Z,937.75
2022-08-04T03:26:17.316Z,937.74
2022-08-04T03:27:18.218Z,937.76
2022-08-04T03:28:19.229Z,937.72
2022-08-04T03:29:26.087Z,937.74
2022-08-04T03:30:20.844Z,937.76
2022-08-04T03:31:21.769Z,937.76
2022-08-04T03:32:22.059Z,937.74
2022-08-04T03:33:22.258Z,937.78
2022-08-04T03:34:22.747Z,937.77
2022-08-04T03:35:23.357Z,937.76
2022-08-04T03:36:27.242Z,937.75
2022-08-04T03:37:24.182Z,937.76
2022-08-04T03:38:24.404Z,937.79
2022-08-04T03:39:25.370Z,937.81
2022-08-04T03:40:26.076Z,937.79
2022-08-04T03:41:51.025Z,937.8
2022-08-04T03:42:58.718Z,937.85
2022-08-04T03:44:03.057Z,937.82
2022-08-04T03:45:03.546Z,937.81
2022-08-04T03:46:04.469Z,937.78
2022-08-04T03:47:04.968Z,937.8
2022-08-04T03:48:05.871Z,937.81
2022-08-04T03:49:06.070Z,937.78
2022-08-04T03:50:06.295Z,937.78
2022-08-04T03:51:06.913Z,937.83
2022-08-04T03:52:07.438Z,937.83
2022-08-04T03:53:07.913Z,937.8
2022-08-04T03:54:08.809Z,937.79
2022-08-04T03:55:09.023Z,937.86
2022-08-04T03:56:09.522Z,937.86
2022-08-04T03:57:10.418Z,937.85
2022-08-04T03:58:10.558Z,937.82
2022-08-04T03:59:11.287Z,937.84
2022-08-04T04:00:11.419Z,937.85
2022-08-04T04:01:11.903Z,937.82
2022-08-04T04:02:12.276Z,937.84
2022-08-04T04:03:12.458Z,937.77
2022-08-04T04:04:12.718Z,937.83
2022-08-04T04:05:13.143Z,937.81
2022-08-04T04:06:15.008Z,937.79
2022-08-04T04:07:14.203Z,937.79
2022-08-04T04:08:18.963Z,937.81
2022-08-04T04:09:16.091Z,937.79
2022-08-04T04:10:15.825Z,937.78
2022-08-04T04:11:16.437Z,937.75
2022-08-04T04:12:17.667Z,937.76
2022-08-04T04:13:18.079Z,937.76
2022-08-04T04:14:18.578Z,937.75
2022-08-04T04:15:18.801Z,937.8
2022-08-04T04:16:19.850Z,937.78
2022-08-04T04:17:20.714Z,937.79
2022-08-04T04:18:20.713Z,937.79
2022-08-04T04:19:20.907Z,937.79
2022-08-04T04:20:21.822Z,937.78
2022-08-04T04:21:22.026Z,937.81
2022-08-04T04:22:22.634Z,937.81
2022-08-04T04:23:23.667Z,937.82
2022-08-04T04:24:23.873Z,937.83
2022-08-04T04:25:24.909Z,937.84
2022-08-04T04:26:25.106Z,937.83
2022-08-04T04:27:25.732Z,937.84
2022-08-04T04:28:44.021Z,937.83
2022-08-04T04:29:27.223Z,937.86
2022-08-04T04:30:27.721Z,937.86
2022-08-04T04:31:28.222Z,937.87
2022-08-04T04:32:28.731Z,937.85
2022-08-04T04:33:29.315Z,937.83
2022-08-04T04:34:30.221Z,937.86
2022-08-04T04:35:30.617Z,937.88
2022-08-04T04:36:30.823Z,937.88
2022-08-04T04:37:31.073Z,937.88
2022-08-04T04:38:31.705Z,937.83
2022-08-04T04:39:32.282Z,937.86
2022-08-04T04:40:33.005Z,937.88
2022-08-04T04:41:33.437Z,937.89
2022-08-04T04:42:34.361Z,937.91
2022-08-04T04:43:53.424Z,937.92
2022-08-04T04:44:53.645Z,937.92
2022-08-04T04:45:53.886Z,937.95
2022-08-04T04:46:54.965Z,937.89
2022-08-04T04:48:09.294Z,937.93
2022-08-04T04:48:56.229Z,937.92
2022-08-04T04:49:56.536Z,937.93
2022-08-04T04:50:57.462Z,937.95
2022-08-04T04:51:58.384Z,937.95
2022-08-04T04:52:58.600Z,937.95
2022-08-04T04:54:00.335Z,937.95
2022-08-04T04:55:00.160Z,937.95
2022-08-04T04:56:00.366Z,937.97
2022-08-04T04:57:01.034Z,937.96
2022-08-04T04:58:01.980Z,937.95
2022-08-04T04:59:02.705Z,938
2022-08-04T05:00:03.611Z,937.97
2022-08-04T05:01:04.525Z,938
2022-08-04T05:02:04.726Z,938
2022-08-04T05:03:09.115Z,938.01
2022-08-04T05:04:05.835Z,938.03
2022-08-04T05:05:06.035Z,938.02
2022-08-04T05:06:06.935Z,938.04
2022-08-04T05:07:07.133Z,938.02
2022-08-04T05:08:41.355Z,938.07
2022-08-04T05:09:08.271Z,938.08
2022-08-04T05:10:08.495Z,938.09
2022-08-04T05:11:08.704Z,938.11
2022-08-04T05:12:18.499Z,938.12
2022-08-04T05:14:53.698Z,938.13
2022-08-04T05:15:54.708Z,938.11
2022-08-04T05:16:55.678Z,938.11
2022-08-04T05:17:56.343Z,938.1
2022-08-04T05:18:56.549Z,938.1
2022-08-04T05:19:57.463Z,938.09
2022-08-04T05:20:57.460Z,938.05
2022-08-04T05:21:57.962Z,938.09
2022-08-04T05:22:58.164Z,938.07
2022-08-04T05:23:59.062Z,938.06
2022-08-04T05:24:59.262Z,938.08
2022-08-04T05:26:00.845Z,938.07
2022-08-04T05:27:01.391Z,938.1
2022-08-04T05:28:01.600Z,938.04
2022-08-04T05:29:02.534Z,938.06
2022-08-04T05:30:03.455Z,938.04
2022-08-04T05:31:03.670Z,938.05
2022-08-04T05:32:04.567Z,938.03
2022-08-04T05:33:05.094Z,938.05
2022-08-04T05:34:05.722Z,938.05
2022-08-04T05:35:06.225Z,938.07
2022-08-04T05:37:12.135Z,938.06
2022-08-04T05:38:13.012Z,938.08
2022-08-04T05:39:13.978Z,938.08
2022-08-04T05:40:14.805Z,938.1
2022-08-04T05:41:15.733Z,938.09
2022-08-04T05:42:15.974Z,938.09
2022-08-04T05:43:16.194Z,938.08
2022-08-04T05:44:16.397Z,938.08
2022-08-04T05:45:16.608Z,938.06
2022-08-04T05:46:17.033Z,938.05
2022-08-04T05:47:18.020Z,938.05
2022-08-04T05:48:18.570Z,938.04
2022-08-04T05:49:21.193Z,938.01
2022-08-04T05:50:19.483Z,938.01
2022-08-04T05:51:19.789Z,938.05
2022-08-04T05:52:20.713Z,938.06
2022-08-04T05:53:20.931Z,938.04
2022-08-04T05:54:21.436Z,938.08
2022-08-04T05:55:48.425Z,938.05
2022-08-04T05:56:23.101Z,938.05
2022-08-04T05:57:23.617Z,938.08
2022-08-04T05:58:23.736Z,938.1
2022-08-04T05:59:24.227Z,938.11
2022-08-04T06:00:40.073Z,938.12
2022-08-04T06:01:25.489Z,938.09
2022-08-04T06:02:25.778Z,938.14
2022-08-04T06:03:26.281Z,938.14
2022-08-04T06:04:26.928Z,938.11
2022-08-04T06:05:27.153Z,938.09
2022-08-04T06:06:28.081Z,938.1
2022-08-04T06:07:28.237Z,938.11
2022-08-04T06:08:28.341Z,938.15
2022-08-04T06:09:28.565Z,938.14
2022-08-04T06:10:29.263Z,938.12
2022-08-04T06:11:29.521Z,938.17
2022-08-04T06:12:30.099Z,938.15
2022-08-04T06:13:45.119Z,938.16
2022-08-04T06:14:31.513Z,938.14
2022-08-04T06:15:32.539Z,938.16
2022-08-04T06:16:32.735Z,938.15
2022-08-04T06:20:01.469Z,938.13
2022-08-04T06:21:20.738Z,938.13
2022-08-04T06:22:20.962Z,938.09
2022-08-04T06:23:21.403Z,938.08
2022-08-04T06:24:21.874Z,938.08
2022-08-04T06:25:22.798Z,938.09
2022-08-04T06:26:23.300Z,938.09
2022-08-04T06:27:24.332Z,938.1
2022-08-04T06:28:25.236Z,938.09
2022-08-04T06:29:25.940Z,938.13
2022-08-04T06:30:26.520Z,938.1
2022-08-04T06:32:26.517Z,938.1
2022-08-04T06:33:05.275Z,938.13
2022-08-04T06:34:04.578Z,938.08
2022-08-04T06:35:05.474Z,938.09
2022-08-04T06:36:06.410Z,938.13
2022-08-04T06:37:06.904Z,938.08
2022-08-04T06:38:07.239Z,938.13
2022-08-04T06:39:07.391Z,938.17
2022-08-04T06:40:16.779Z,938.13
2022-08-04T06:41:08.085Z,938.11
2022-08-04T06:42:17.580Z,938.15
2022-08-04T06:43:10.150Z,938.18
2022-08-04T06:44:10.852Z,938.17
2022-08-04T06:45:11.050Z,938.18
2022-08-04T06:46:11.270Z,938.15
2022-08-04T06:47:13.845Z,938.2
2022-08-04T06:48:11.808Z,938.17
2022-08-04T06:49:12.234Z,938.23
2022-08-04T06:51:29.059Z,938.23
2022-08-04T06:52:01.248Z,938.27
2022-08-04T06:53:01.574Z,938.28
2022-08-04T06:54:02.126Z,938.25
2022-08-04T06:55:03.124Z,938.31
2022-08-04T06:56:03.632Z,938.32
2022-08-04T06:57:04.261Z,938.3
2022-08-04T06:58:05.064Z,938.33
2022-08-04T06:59:05.281Z,938.32
2022-08-04T07:00:05.710Z,938.28
2022-08-04T07:01:06.451Z,938.29
2022-08-04T07:02:07.361Z,938.29
2022-08-04T07:03:07.658Z,938.3
2022-08-04T07:04:08.574Z,938.25
2022-08-04T07:05:09.501Z,938.27
2022-08-04T07:06:14.542Z,938.34
2022-08-04T07:07:11.050Z,938.3
2022-08-04T07:08:11.770Z,938.29
2022-08-04T07:09:12.414Z,938.29
2022-08-04T07:10:13.053Z,938.27
2022-08-04T07:11:13.220Z,938.26
2022-08-04T07:12:14.089Z,938.29
2022-08-04T07:13:14.444Z,938.27
2022-08-04T07:14:15.073Z,938.27
2022-08-04T07:15:15.424Z,938.31
2022-08-04T07:16:16.391Z,938.28
2022-08-04T07:17:17.157Z,938.27
2022-08-04T07:18:17.769Z,938.27
2022-08-04T07:19:19.134Z,938.26
2022-08-04T07:20:33.787Z,938.28
2022-08-04T07:21:19.103Z,938.26
2022-08-04T07:22:25.547Z,938.23
2022-08-04T07:23:20.242Z,938.23
2022-08-04T07:24:20.567Z,938.2
2022-08-04T07:25:22.143Z,938.24
2022-08-04T07:26:24.797Z,938.23
2022-08-04T07:27:47.129Z,938.22
2022-08-04T07:28:26.372Z,938.22
2022-08-04T07:29:26.629Z,938.19
2022-08-04T07:30:27.143Z,938.22
2022-08-04T07:31:32.561Z,938.24
2022-08-04T07:32:27.749Z,938.24
2022-08-04T07:33:28.483Z,938.25
2022-08-04T07:34:29.304Z,938.25
2022-08-04T07:35:34.535Z,938.24
2022-08-04T07:36:34.154Z,938.25
2022-08-04T07:37:39.237Z,938.26
2022-08-04T07:38:31.422Z,938.24
2022-08-04T07:39:32.539Z,938.28
2022-08-04T07:40:33.220Z,938.29
2022-08-04T07:41:35.527Z,938.23
2022-08-04T07:42:33.860Z,938.24
2022-08-04T07:43:34.805Z,938.33
2022-08-04T07:44:35.447Z,938.28
2022-08-04T07:45:35.828Z,938.3
2022-08-04T07:46:36.753Z,938.32
2022-08-04T07:47:37.018Z,938.25
2022-08-04T07:48:37.534Z,938.31
2022-08-04T07:49:52.315Z,938.3
2022-08-04T07:50:39.467Z,938.27
2022-08-04T07:51:40.403Z,938.27
2022-08-04T07:52:40.762Z,938.3
2022-08-04T07:54:36.494Z,938.27
2022-08-04T07:55:36.999Z,938.27
2022-08-04T07:56:37.243Z,938.26
2022-08-04T07:57:39.911Z,938.28
2022-08-04T07:58:39.038Z,938.3
2022-08-04T07:59:39.495Z,938.29
2022-08-04T08:00:40.549Z,938.29
2022-08-04T08:01:41.114Z,938.27
2022-08-04T08:02:41.457Z,938.28
2022-08-04T08:03:41.982Z,938.29
2022-08-04T08:04:42.712Z,938.35
2022-08-04T08:05:54.984Z,938.34
2022-08-04T08:06:54.782Z,938.35
2022-08-04T08:07:55.513Z,938.37
2022-08-04T08:08:56.199Z,938.32
2022-08-04T08:09:56.777Z,938.34
2022-08-04T08:10:57.026Z,938.35
2022-08-04T08:12:34.550Z,938.34
2022-08-04T08:13:06.930Z,938.35
2022-08-04T08:14:07.922Z,938.34
2022-08-04T08:15:08.833Z,938.38
2022-08-04T08:16:09.084Z,938.34
2022-08-04T08:17:09.620Z,938.34
2022-08-04T08:18:09.912Z,938.34
2022-08-04T08:19:10.848Z,938.33
2022-08-04T08:20:11.832Z,938.32
2022-08-04T08:21:12.050Z,938.32
2022-08-04T08:22:12.685Z,938.35
2022-08-04T08:23:13.610Z,938.31
2022-08-04T08:24:14.310Z,938.34
2022-08-04T08:25:15.090Z,938.31
2022-08-04T08:26:15.303Z,938.31
2022-08-04T08:27:16.209Z,938.34
2022-08-04T08:28:17.061Z,938.35
2022-08-04T08:29:17.710Z,938.35
2022-08-04T08:30:18.353Z,938.33
2022-08-04T08:31:19.113Z,938.33
2022-08-04T08:32:20.071Z,938.31
2022-08-04T08:33:20.616Z,938.33
2022-08-04T08:34:21.609Z,938.33
2022-08-04T08:35:21.935Z,938.32
2022-08-04T08:36:22.076Z,938.32
2022-08-04T08:37:22.619Z,938.31
2022-08-04T08:38:22.437Z,938.32
2022-08-04T08:39:24.685Z,938.31
2022-08-04T08:40:39.206Z,938.32
2022-08-04T08:41:23.939Z,938.36
2022-08-04T08:42:24.848Z,938.34
2022-08-04T08:44:00.726Z,938.32
2022-08-04T08:44:49.723Z,938.3
2022-08-04T08:45:50.083Z,938.34
2022-08-04T08:46:50.502Z,938.35
2022-08-04T08:47:58.552Z,938.34
2022-08-04T08:48:52.521Z,938.3
2022-08-04T08:50:01.342Z,938.32
2022-08-04T08:50:54.154Z,938.35
2022-08-04T08:51:54.664Z,938.31
2022-08-04T08:52:57.715Z,938.34
2022-08-04T08:53:56.083Z,938.37
2022-08-04T08:54:56.938Z,938.42
2022-08-04T08:55:57.434Z,938.39
2022-08-04T08:56:58.071Z,938.43
2022-08-04T08:57:59.683Z,938.44
2022-08-04T08:58:59.122Z,938.45
2022-08-04T08:59:59.666Z,938.45
2022-08-04T09:00:59.863Z,938.46
2022-08-04T09:02:01.034Z,938.54
2022-08-04T09:03:04.297Z,938.48
2022-08-04T09:04:02.658Z,938.45
2022-08-04T09:05:02.964Z,938.49
2022-08-04T09:06:03.261Z,938.53
2022-08-04T09:07:04.205Z,938.52
2022-08-04T09:08:05.249Z,938.54
2022-08-04T09:09:06.190Z,938.55
2022-08-04T09:10:06.848Z,938.53
2022-08-04T09:11:07.845Z,938.54
2022-08-04T09:12:08.177Z,938.5
2022-08-04T09:13:08.338Z,938.51
2022-08-04T09:14:08.570Z,938.53
2022-08-04T09:15:09.084Z,938.57
2022-08-04T09:16:09.525Z,938.55
2022-08-04T09:17:09.776Z,938.56
2022-08-04T09:18:10.260Z,938.59
2022-08-04T09:19:10.496Z,938.6
2022-08-04T09:20:10.689Z,938.59
2022-08-04T09:21:11.603Z,938.56
2022-08-04T09:22:12.729Z,938.61
2022-08-04T09:23:12.220Z,938.6
2022-08-04T09:24:34.715Z,938.56
2022-08-04T09:25:13.012Z,938.55
2022-08-04T09:26:13.190Z,938.53
2022-08-04T09:27:14.216Z,938.57
2022-08-04T09:28:15.552Z,938.57
2022-08-04T09:29:15.279Z,938.56
2022-08-04T09:30:16.286Z,938.54
2022-08-04T09:31:16.994Z,938.58
2022-08-04T09:32:17.300Z,938.59
2022-08-04T09:33:17.614Z,938.55
2022-08-04T09:34:18.539Z,938.52
2022-08-04T09:35:18.761Z,938.51
2022-08-04T09:36:25.561Z,938.5
2022-08-04T09:37:20.010Z,938.5
2022-08-04T09:38:20.026Z,938.53
2022-08-04T09:39:21.074Z,938.55
2022-08-04T09:40:31.126Z,938.55
2022-08-04T09:41:52.947Z,938.51
2022-08-04T09:42:54.001Z,938.53
2022-08-04T09:43:57.434Z,938.54
2022-08-04T09:45:44.379Z,938.6
2022-08-04T09:46:44.239Z,938.63
2022-08-04T09:47:44.657Z,938.59
2022-08-04T09:48:44.906Z,938.63
2022-08-04T09:49:45.713Z,938.64
2022-08-04T09:50:50.176Z,938.67
2022-08-04T09:51:57.070Z,938.64
2022-08-04T09:52:48.492Z,938.66
2022-08-04T09:53:49.472Z,938.67
2022-08-04T09:54:49.720Z,938.65
2022-08-04T09:55:53.329Z,938.68
2022-08-04T09:56:50.996Z,938.66
2022-08-04T09:57:51.319Z,938.67
2022-08-04T09:58:51.590Z,938.63
2022-08-04T09:59:51.806Z,938.64
2022-08-04T10:00:52.027Z,938.6
2022-08-04T10:01:58.827Z,938.58
2022-08-04T10:02:53.741Z,938.61
2022-08-04T10:03:54.279Z,938.59
2022-08-04T10:04:54.499Z,938.61
2022-08-04T10:05:55.163Z,938.61
2022-08-04T10:06:55.809Z,938.61
2022-08-04T10:08:17.350Z,938.63
2022-08-04T10:09:17.334Z,938.62
2022-08-04T10:10:17.554Z,938.6
2022-08-04T10:11:18.229Z,938.6
2022-08-04T10:12:18.510Z,938.6
2022-08-04T10:13:19.434Z,938.57
2022-08-04T10:14:23.109Z,938.55
2022-08-04T10:15:21.138Z,938.59
2022-08-04T10:16:21.928Z,938.53
2022-08-04T10:17:22.726Z,938.5
2022-08-04T10:18:22.927Z,938.55
2022-08-04T10:19:23.187Z,938.5
2022-08-04T10:20:34.078Z,938.55
2022-08-04T10:21:23.857Z,938.55
2022-08-04T10:22:34.486Z,938.54
2022-08-04T10:23:29.514Z,938.55
2022-08-04T10:24:29.997Z,938.53
2022-08-04T10:25:37.237Z,938.55
2022-08-04T10:26:31.146Z,938.55
2022-08-04T10:27:31.377Z,938.55
2022-08-04T10:28:32.404Z,938.56
2022-08-04T10:29:33.050Z,938.56
2022-08-04T10:30:33.276Z,938.54
2022-08-04T10:31:33.607Z,938.58
2022-08-04T10:32:34.486Z,938.59
2022-08-04T10:33:34.882Z,938.54
2022-08-04T10:34:35.910Z,938.55
2022-08-04T10:35:36.583Z,938.53
2022-08-04T10:36:37.524Z,938.52
2022-08-04T10:37:51.921Z,938.49
2022-08-04T10:38:49.668Z,938.47
2022-08-04T10:39:50.342Z,938.52
2022-08-04T10:40:51.077Z,938.51
2022-08-04T10:41:52.022Z,938.52
2022-08-04T10:42:53.105Z,938.44
2022-08-04T10:43:53.951Z,938.49
2022-08-04T10:44:57.617Z,938.48
2022-08-04T10:45:57.894Z,938.43
2022-08-04T10:46:55.216Z,938.46
2022-08-04T10:47:55.734Z,938.45
2022-08-04T10:48:55.998Z,938.43
2022-08-04T10:49:56.216Z,938.44
2022-08-04T10:50:57.222Z,938.4
2022-08-04T10:51:59.550Z,938.43
2022-08-04T10:52:58.010Z,938.41
2022-08-04T10:53:58.753Z,938.42
2022-08-04T10:54:58.970Z,938.43
2022-08-04T10:56:05.975Z,938.42
2022-08-04T10:57:00.726Z,938.41
2022-08-04T10:58:00.996Z,938.38
2022-08-04T10:59:01.138Z,938.36
2022-08-04T11:00:03.681Z,938.39
2022-08-04T11:01:02.482Z,938.34
2022-08-04T11:02:07.975Z,938.33
2022-08-04T11:03:08.355Z,938.37
2022-08-04T11:04:08.881Z,938.32
2022-08-04T11:05:09.351Z,938.3
2022-08-04T11:06:09.667Z,938.33
2022-08-04T11:07:10.701Z,938.3
2022-08-04T11:08:12.869Z,938.33
2022-08-04T11:09:13.958Z,938.34
2022-08-04T11:10:12.715Z,938.33
2022-08-04T11:11:13.702Z,938.34
2022-08-04T11:12:14.683Z,938.31
2022-08-04T11:13:21.793Z,938.32
2022-08-04T11:14:16.593Z,938.34
2022-08-04T11:15:17.273Z,938.35
2022-08-04T11:16:18.196Z,938.32
2022-08-04T11:17:18.428Z,938.28
2022-08-04T11:18:18.989Z,938.3
2022-08-04T11:19:19.694Z,938.31
2022-08-04T11:20:39.988Z,938.34
2022-08-04T11:21:40.442Z,938.27
2022-08-04T11:22:40.656Z,938.29
2022-08-04T11:23:41.090Z,938.31
2022-08-04T11:24:41.316Z,938.3
2022-08-04T11:25:41.540Z,938.31
2022-08-04T11:26:42.749Z,938.27
2022-08-04T11:27:43.113Z,938.27
2022-08-04T11:28:43.288Z,938.26
2022-08-04T11:29:46.636Z,938.29
2022-08-04T11:30:47.571Z,938.26
2022-08-04T11:31:51.593Z,938.27
2022-08-04T11:32:48.397Z,938.27
2022-08-04T11:33:49.364Z,938.24
2022-08-04T11:34:52.725Z,938.27
2022-08-04T11:35:51.148Z,938.25
2022-08-04T11:36:51.369Z,938.23
2022-08-04T11:37:52.338Z,938.26
2022-08-04T11:38:52.594Z,938.22
2022-08-04T11:39:53.269Z,938.28
2022-08-04T11:41:02.110Z,938.25
2022-08-04T11:41:54.590Z,938.21
2022-08-04T11:42:55.556Z,938.19
2022-08-04T11:44:01.489Z,938.22
2022-08-04T11:44:56.654Z,938.23
2022-08-04T11:45:56.952Z,938.27
2022-08-04T11:46:57.973Z,938.24
2022-08-04T11:47:58.199Z,938.27
2022-08-04T11:48:58.425Z,938.25
2022-08-04T11:49:58.876Z,938.21
2022-08-04T11:50:59.951Z,938.21
2022-08-04T11:52:00.779Z,938.24
2022-08-04T11:53:01.618Z,938.26
2022-08-04T11:54:02.565Z,938.22
2022-08-04T11:55:02.787Z,938.2
2022-08-04T11:56:07.369Z,938.21
2022-08-04T11:57:03.584Z,938.2
2022-08-04T11:58:04.425Z,938.21
2022-08-04T11:59:04.643Z,938.23
2022-08-04T12:00:07.369Z,938.22
2022-08-04T12:01:06.622Z,938.2
2022-08-04T12:02:07.710Z,938.21
2022-08-04T12:03:08.437Z,938.16
2022-08-04T12:04:09.359Z,938.18
2022-08-04T12:05:32.277Z,938.2
2022-08-04T12:06:11.077Z,938.2
2022-08-04T12:08:12.350Z,938.2
2022-08-04T12:09:12.593Z,938.21
2022-08-04T12:10:13.311Z,938.21
2022-08-04T12:11:14.379Z,938.17
2022-08-04T12:12:14.619Z,938.2
2022-08-04T12:13:14.865Z,938.17
2022-08-04T12:14:15.828Z,938.16
2022-08-04T12:15:16.047Z,938.14
2022-08-04T12:16:16.387Z,938.14
2022-08-04T12:17:16.970Z,938.15
2022-08-04T12:18:17.592Z,938.11
2022-08-04T12:19:17.944Z,938.13
2022-08-04T12:21:15.745Z,938.12
2022-08-04T12:22:16.226Z,938.1
2022-08-04T12:23:17.114Z,938.1
2022-08-04T12:24:18.284Z,938.13
2022-08-04T12:25:18.505Z,938.16
2022-08-04T12:26:19.180Z,938.13
2022-08-04T12:27:19.525Z,938.09
2022-08-04T12:28:20.044Z,938.1
2022-08-04T12:29:20.772Z,938.05
2022-08-04T12:31:00.762Z,938.07
2022-08-04T12:31:54.533Z,938.07
2022-08-04T12:32:55.479Z,938.04
2022-08-04T12:34:03.145Z,938.04
2022-08-04T12:34:56.846Z,938.02
2022-08-04T12:35:58.161Z,938.02
2022-08-04T12:36:58.082Z,937.99
2022-08-04T12:37:58.320Z,938.02
2022-08-04T12:38:58.733Z,938.03
2022-08-04T12:40:21.502Z,938.01
2022-08-04T12:41:00.189Z,937.99
2022-08-04T12:42:01.217Z,938.02
2022-08-04T12:43:01.807Z,938.04
2022-08-04T12:44:02.051Z,938.02
2022-08-04T12:45:02.227Z,938.02
2022-08-04T12:46:03.162Z,938.06
2022-08-04T12:47:25.943Z,938.08
2022-08-04T12:48:04.944Z,938.08
2022-08-04T12:49:05.573Z,938.08
2022-08-04T12:50:06.308Z,938.07
2022-08-04T12:51:06.560Z,938.05
2022-08-04T12:53:04.687Z,938.04
2022-08-04T12:54:05.658Z,938.06